Bijsk Zonal'Naja, Russia
Current Conditions -  °F | °C
As of 4:30 PM on Thursday 23 Oct 2014 (Local Time) from UNBB Reporting Station
Clear Clear  
Wind Chill: 43°   Ceiling: Unl
Heat Index: 46°   Visibility: 6mi
Dew Point: 32°   Wind: 7mph
Humidity: 57%   Direction: 150°SSE
Pressure: 29.83"   Gusts: NA
Location:  52.68°N, 84.95°E
Report Text: UNBB 230930Z 15003MPS CAVOK 08/M00 Q1010 NOSIG RMK QFE735/098024190058
Loading
Personal Weather Stations






























Interactive Weather Map
Tropical Storm Tracking
New forecast layout! Learn more

10-Day Weather Forecast

Advertisements
Track Severe Weather on mobile